메인 페이지
METAR-TAF:

METAR-TAF

공항 :

Comodoro Rivadavia, 아르헨티나

위도: 45-47S, 경도: 067-30W, 고도: 58m

현재 날씨관측

예보는 1 시간 27분 전, 20:00시(UTC)에 발표되었습니다.
남남서17kt
온도 3°C
습도 75%
기압 1020 hPa
시정: 6000m
고도 3000ft 상공 구름 조금
고도 5000ft 상공 구름 많음

METAR: SAVC 192000Z 21017KT 6000 FEW030 BKN050 03/M01 Q1020 PP000

시각: 18:27 (21:27 UTC)

예보

예보는 4 시간 27분 전, 17:00시(UTC)에 발표되었습니다.
예보 대상 시간: 19일 18시부터 20일 18시까지 (UTC)
남남서15kt
시정 10km 이상
고도 3000ft 상공 흐림
전환 중
19일 22시부터 19일 24시까지 (UTC)
남서10kt
고도 1500ft 상공 구름 보통
고도 2500ft 상공 흐림
전환 중
20일 06시부터 20일 09시까지 (UTC)
시정: 8000m
고도 1000ft 상공 구름 많음
고도 2000ft 상공 흐림
약한눈
전환 중
20일 15시부터 20일 17시까지 (UTC)
여러 방향의 바람 5kt
시정: 7000m
고도 2500ft 상공 구름 많음
고도 4000ft 상공 흐림
약한비, 눈,

TAF: SAVC 191700Z 1918/2018 20015KT 9999 OVC030 TX04/1918Z TNM01/2010Z BECMG 1922/1924 23010KT SCT015 OVC025 BECMG 2006/2009 8000 -SN BKN010 OVC020 BECMG 2015/2017 VRB05KT 7000 -RASN BKN025 OVC040

4,000개 이상의 공항 관측 자료 및 예보 (METAR 및 TAF 보고).

지도상에서 검색 가능한 기상관측소가 노란 점과 빨간 점으로 표시되어 있습니다.

기상관측소 명을 보려면 표시 위로 마우스를 이동하세요.

날씨 관측과 예보를 보려면 클릭하세요.

지도 변경 : 확대하려면 엑스 표시가 있는 녹색 버튼, 축소하려면 빼기 표시가 있는 녹색 버튼, 다음 페이지의 지도를 보려면 녹색 화살표를 클릭하세요.


METAR-TAF: